Time;durP1;ratioP1;P1;durP2;ratioP2;P2;SDS_P1;SDS_P2;PMS_P1;PMS_P2;Temp;Humidity;BMP_temperature;BMP_pressure;BME280_temperature;BME280_humidity;BME280_pressure;Samples;Min_cycle;Max_cycle;Signal;HPM_P1;HPM_P2
2021/10/04 00:00:46;;;;;;;2.35;0.70;;;15.20;99.90;;;;;;5036235;28;20025;-90
2021/10/04 00:03:11;;;;;;;1.80;0.73;;;15.20;99.90;;;;;;5036237;28;20476;-91
2021/10/04 00:05:37;;;;;;;0.70;0.60;;;15.30;99.90;;;;;;5036231;28;20025;-91
2021/10/04 00:08:03;;;;;;;4.05;0.65;;;15.30;99.90;;;;;;5036381;28;20033;-91
2021/10/04 00:10:29;;;;;;;2.97;0.60;;;15.40;99.90;;;;;;5036161;28;20060;-91
2021/10/04 00:12:55;;;;;;;1.73;0.65;;;15.30;99.90;;;;;;5036142;28;20032;-91
2021/10/04 00:15:22;;;;;;;2.35;0.60;;;15.20;99.90;;;;;;5036123;28;20029;-90
2021/10/04 00:17:48;;;;;;;3.25;0.68;;;15.00;99.90;;;;;;5053741;28;20061;-92
2021/10/04 00:20:17;;;;;;;0.55;0.50;;;14.90;99.90;;;;;;5036002;28;20032;-91
2021/10/04 00:22:44;;;;;;;1.10;0.60;;;14.90;99.90;;;;;;5035938;28;20070;-91
2021/10/04 00:25:10;;;;;;;2.45;0.68;;;14.80;99.90;;;;;;5036018;28;20025;-91
2021/10/04 00:27:36;;;;;;;0.73;0.47;;;14.80;99.90;;;;;;5036244;28;20105;-90
2021/10/04 00:30:07;;;;;;;0.85;0.60;;;14.90;99.90;;;;;;5036170;28;20060;-90
2021/10/04 00:32:39;;;;;;;1.20;0.63;;;14.80;99.90;;;;;;5036205;28;20079;-90
2021/10/04 00:35:06;;;;;;;0.82;0.60;;;15.00;99.90;;;;;;5036199;28;20388;-91
2021/10/04 00:37:33;;;;;;;1.75;0.60;;;15.10;99.90;;;;;;5035774;28;20097;-91
2021/10/04 00:39:59;;;;;;;1.98;0.60;;;15.10;99.90;;;;;;5035903;28;20484;-91
2021/10/04 00:42:25;;;;;;;1.20;0.50;;;15.10;99.90;;;;;;5035995;28;20020;-91
2021/10/04 00:44:52;;;;;;;0.77;0.60;;;15.20;99.90;;;;;;5035783;28;20041;-91
2021/10/04 00:47:18;;;;;;;3.33;0.70;;;15.20;99.90;;;;;;5038674;28;20025;-91
2021/10/04 00:49:44;;;;;;;1.13;0.70;;;15.20;99.90;;;;;;5057596;28;20036;-91
2021/10/04 00:52:10;;;;;;;1.33;0.40;;;15.20;99.90;;;;;;5039590;28;20484;-91
2021/10/04 00:54:37;;;;;;;1.15;0.60;;;15.10;99.90;;;;;;5039880;28;20079;-91
2021/10/04 00:57:03;;;;;;;3.78;0.60;;;14.80;99.90;;;;;;5039550;28;20025;-91
2021/10/04 00:59:29;;;;;;;5.65;0.73;;;14.70;99.90;;;;;;5039547;28;20028;-91
2021/10/04 01:01:55;;;;;;;3.53;0.70;;;14.50;99.90;;;;;;5040455;28;20021;-92
2021/10/04 01:04:26;;;;;;;0.65;0.50;;;14.30;99.90;;;;;;5039789;28;20480;-92
2021/10/04 01:06:58;;;;;;;2.22;0.60;;;14.40;99.90;;;;;;5039844;28;20485;-92
2021/10/04 01:09:26;;;;;;;0.52;0.43;;;14.40;99.90;;;;;;5057443;28;20029;-91
2021/10/04 01:11:53;;;;;;;1.15;0.50;;;14.50;99.90;;;;;;5039557;28;20021;-92
2021/10/04 01:14:19;;;;;;;1.88;0.68;;;14.50;99.90;;;;;;5039750;28;20025;-91
2021/10/04 01:16:45;;;;;;;1.85;0.70;;;14.50;99.90;;;;;;5039355;28;20032;-92
2021/10/04 01:19:11;;;;;;;1.23;0.50;;;14.50;99.90;;;;;;5039403;28;20167;-91
2021/10/04 01:21:37;;;;;;;1.98;0.60;;;14.70;99.90;;;;;;5039054;28;20464;-90
2021/10/04 01:24:05;;;;;;;0.98;0.65;;;14.90;99.90;;;;;;5039140;28;20021;-91
2021/10/04 01:26:31;;;;;;;1.20;0.40;;;15.00;99.90;;;;;;5039338;28;20108;-91
2021/10/04 01:28:57;;;;;;;1.02;0.50;;;15.00;99.90;;;;;;5039152;28;20045;-90
2021/10/04 01:31:23;;;;;;;3.00;0.80;;;14.90;99.90;;;;;;5039078;28;20032;-91
2021/10/04 01:33:50;;;;;;;1.27;0.50;;;15.00;99.90;;;;;;5038947;28;20039;-91
2021/10/04 01:36:16;;;;;;;1.80;0.70;;;14.90;99.90;;;;;;5038956;28;20498;-91
2021/10/04 01:38:43;;;;;;;0.98;0.50;;;14.70;99.90;;;;;;5056692;28;20103;-91
2021/10/04 01:41:08;;;;;;;3.92;0.65;;;14.80;99.90;;;;;;5038939;28;20021;-92
2021/10/04 01:43:34;;;;;;;1.25;0.43;;;14.90;99.90;;;;;;5029379;28;20046;-91
2021/10/04 01:46:00;;;;;;;1.45;0.50;;;14.80;99.90;;;;;;5015972;28;20029;-91
2021/10/04 01:48:26;;;;;;;0.50;0.40;;;14.80;99.90;;;;;;5015679;28;20045;-91
2021/10/04 01:50:52;;;;;;;1.20;0.60;;;14.80;99.90;;;;;;5016484;28;20029;-90
2021/10/04 01:53:18;;;;;;;2.47;0.65;;;14.70;99.90;;;;;;5015576;28;20048;-91
2021/10/04 01:55:44;;;;;;;1.67;0.52;;;14.60;99.90;;;;;;5015494;28;20026;-90
2021/10/04 01:58:09;;;;;;;1.02;0.60;;;14.40;99.90;;;;;;5014572;28;20022;-90
2021/10/04 02:00:36;;;;;;;0.50;0.47;;;14.40;99.90;;;;;;5031624;28;20006;-88
2021/10/04 02:03:03;;;;;;;2.20;0.47;;;14.30;99.90;;;;;;5033735;28;20018;-89
2021/10/04 02:05:30;;;;;;;2.78;0.50;;;14.40;99.90;;;;;;5018654;28;20033;-90
2021/10/04 02:07:56;;;;;;;1.17;0.60;;;14.10;99.90;;;;;;5016728;28;20037;-90
2021/10/04 02:10:28;;;;;;;1.48;0.50;;;14.10;99.90;;;;;;5015400;28;20026;-90
2021/10/04 02:12:56;;;;;;;1.17;0.68;;;14.00;99.90;;;;;;5014956;28;20469;-90
2021/10/04 02:15:22;;;;;;;1.10;0.43;;;13.90;99.90;;;;;;5014882;28;20452;-90
2021/10/04 02:17:48;;;;;;;1.48;0.50;;;13.80;99.90;;;;;;5015972;28;20018;-90
2021/10/04 02:20:17;;;;;;;1.80;0.47;;;13.80;99.90;;;;;;5014860;28;20033;-90
2021/10/04 02:22:43;;;;;;;0.90;0.50;;;13.70;99.90;;;;;;5014564;28;20577;-90
2021/10/04 02:25:10;;;;;;;0.80;0.50;;;14.10;99.90;;;;;;5015843;28;20045;-89
2021/10/04 02:27:37;;;;;;;0.95;0.60;;;14.10;99.90;;;;;;5014436;28;20077;-89
2021/10/04 02:30:09;;;;;;;2.33;0.50;;;14.00;99.90;;;;;;5015643;28;20030;-90
2021/10/04 02:32:35;;;;;;;1.02;0.45;;;13.80;99.90;;;;;;5014395;28;20033;-89
2021/10/04 02:35:01;;;;;;;0.90;0.60;;;13.90;99.90;;;;;;5014260;28;20088;-90
2021/10/04 02:37:27;;;;;;;0.85;0.50;;;13.80;99.90;;;;;;5014197;28;20034;-90
2021/10/04 02:39:53;;;;;;;0.93;0.57;;;13.80;99.90;;;;;;5014035;28;20111;-90
2021/10/04 02:42:18;;;;;;;0.65;0.45;;;13.70;99.90;;;;;;5014069;28;20033;-89
2021/10/04 02:44:44;;;;;;;0.82;0.60;;;13.80;99.90;;;;;;5032662;28;20099;-89
2021/10/04 02:47:10;;;;;;;0.60;0.47;;;13.90;99.90;;;;;;5037019;28;20044;-89
2021/10/04 02:49:35;;;;;;;0.85;0.60;;;13.90;99.90;;;;;;5037022;28;20106;-89
2021/10/04 02:52:01;;;;;;;1.08;0.70;;;13.90;99.90;;;;;;5036910;28;20507;-89
2021/10/04 02:54:27;;;;;;;0.60;0.50;;;13.80;99.90;;;;;;5036866;28;20029;-88
2021/10/04 02:56:53;;;;;;;1.23;0.43;;;13.80;99.90;;;;;;5036676;28;20032;-89
2021/10/04 02:59:18;;;;;;;1.48;0.52;;;13.70;99.90;;;;;;5054785;28;20020;-89
2021/10/04 03:01:44;;;;;;;1.50;0.68;;;13.70;99.90;;;;;;5036732;28;20548;-88
2021/10/04 03:04:10;;;;;;;1.52;0.55;;;13.70;99.90;;;;;;5054476;28;20029;-85
2021/10/04 03:06:36;;;;;;;0.60;0.40;;;13.70;99.90;;;;;;5036516;28;20059;-89
2021/10/04 03:09:02;;;;;;;1.33;0.47;;;13.60;99.90;;;;;;5036222;28;20021;-89
2021/10/04 03:11:28;;;;;;;0.68;0.60;;;13.60;99.90;;;;;;5036462;28;20032;-89
2021/10/04 03:13:54;;;;;;;1.80;0.68;;;13.60;99.90;;;;;;5036345;28;20469;-89
2021/10/04 03:16:20;;;;;;;2.08;0.40;;;13.60;99.90;;;;;;5036297;28;20094;-89
2021/10/04 03:18:46;;;;;;;0.40;0.40;;;13.60;99.90;;;;;;5036208;28;20574;-88
2021/10/04 03:21:12;;;;;;;0.60;0.40;;;13.60;99.90;;;;;;5036194;28;20064;-90
2021/10/04 03:23:37;;;;;;;0.70;0.43;;;13.50;99.90;;;;;;5054115;28;20377;-88
2021/10/04 03:26:03;;;;;;;1.45;0.50;;;13.50;99.90;;;;;;5036225;28;20028;-89
2021/10/04 03:28:28;;;;;;;0.80;0.60;;;13.60;99.90;;;;;;5036220;28;20025;-89
2021/10/04 03:30:54;;;;;;;0.60;0.52;;;13.40;99.90;;;;;;5036178;28;20468;-89
2021/10/04 03:33:20;;;;;;;1.67;0.68;;;13.60;99.90;;;;;;5036002;28;20056;-88
2021/10/04 03:35:46;;;;;;;1.67;0.68;;;13.60;99.90;;;;;;5054444;28;20029;-88
2021/10/04 03:38:11;;;;;;;3.67;0.52;;;13.70;99.90;;;;;;5053680;28;20036;-88
2021/10/04 03:40:37;;;;;;;1.60;0.60;;;13.70;99.90;;;;;;5053783;28;20473;-88
2021/10/04 03:43:03;;;;;;;0.52;0.30;;;13.80;99.90;;;;;;5053486;28;20462;-88
2021/10/04 03:45:29;;;;;;;0.55;0.35;;;13.90;99.90;;;;;;5035844;28;20060;-88
2021/10/04 03:47:55;;;;;;;1.17;0.40;;;14.10;99.90;;;;;;5035763;28;20120;-88
2021/10/04 03:50:21;;;;;;;0.70;0.30;;;14.20;99.90;;;;;;5053528;28;20388;-88
2021/10/04 03:52:47;;;;;;;2.30;0.63;;;13.90;99.90;;;;;;5035647;28;20036;-88
2021/10/04 03:55:14;;;;;;;0.82;0.50;;;13.70;99.90;;;;;;5035654;28;20115;-89
2021/10/04 03:57:41;;;;;;;0.38;0.30;;;13.60;99.90;;;;;;5035545;28;20482;-89
2021/10/04 04:00:11;;;;;;;1.20;0.50;;;13.70;99.90;;;;;;5035714;28;20078;-89
2021/10/04 04:02:37;;;;;;;1.25;0.40;;;13.80;99.90;;;;;;5035777;28;20028;-88
2021/10/04 04:05:03;;;;;;;1.05;0.40;;;13.90;99.90;;;;;;5035493;28;20025;-89
2021/10/04 04:07:29;;;;;;;2.67;0.68;;;13.70;99.90;;;;;;5035357;28;20060;-89
2021/10/04 04:09:54;;;;;;;2.42;0.88;;;13.40;99.90;;;;;;5035521;28;20021;-89
2021/10/04 04:12:20;;;;;;;0.80;0.40;;;13.50;99.90;;;;;;5036999;28;20032;-88
2021/10/04 04:14:46;;;;;;;0.63;0.40;;;13.60;99.90;;;;;;5040917;28;20051;-88
2021/10/04 04:17:12;;;;;;;1.02;0.70;;;13.70;99.90;;;;;;5039246;28;20045;-89
2021/10/04 04:19:37;;;;;;;1.15;0.60;;;13.80;99.90;;;;;;5035980;28;20496;-89
2021/10/04 04:22:03;;;;;;;1.77;0.63;;;13.60;99.90;;;;;;5034943;28;20427;-88
2021/10/04 04:24:29;;;;;;;1.02;0.73;;;13.50;99.90;;;;;;5035282;28;20028;-89
2021/10/04 04:26:56;;;;;;;2.83;0.60;;;13.40;99.90;;;;;;5035212;28;20581;-88
2021/10/04 04:29:25;;;;;;;0.73;0.50;;;13.40;99.90;;;;;;5053412;28;20096;-88
2021/10/04 04:31:51;;;;;;;2.78;0.60;;;13.40;99.90;;;;;;5035285;28;20055;-88
2021/10/04 04:34:17;;;;;;;0.88;0.47;;;13.30;99.90;;;;;;5035154;28;20057;-89
2021/10/04 04:36:43;;;;;;;1.75;0.60;;;13.40;99.90;;;;;;5035060;28;20029;-88
2021/10/04 04:39:09;;;;;;;1.10;0.63;;;13.70;99.90;;;;;;5035046;28;20388;-90
2021/10/04 04:41:35;;;;;;;1.85;0.70;;;13.80;99.90;;;;;;5035377;28;20025;-88
2021/10/04 04:44:00;;;;;;;1.15;0.75;;;13.60;99.90;;;;;;5022339;28;20409;-88
2021/10/04 04:46:26;;;;;;;0.90;0.50;;;13.60;99.90;;;;;;5013331;28;20105;-88
2021/10/04 04:48:52;;;;;;;0.90;0.80;;;13.60;99.90;;;;;;5012007;28;20081;-89
2021/10/04 04:51:18;;;;;;;0.90;0.57;;;13.60;99.90;;;;;;5012030;28;20103;-89
2021/10/04 04:53:46;;;;;;;0.90;0.70;;;13.60;99.90;;;;;;5011994;28;20121;-89
2021/10/04 04:56:12;;;;;;;0.80;0.63;;;13.50;99.90;;;;;;5012016;28;20080;-89
2021/10/04 04:58:38;;;;;;;1.23;0.70;;;13.60;99.90;;;;;;5012221;28;20421;-89
2021/10/04 05:01:04;;;;;;;0.90;0.60;;;13.50;99.90;;;;;;5012258;28;20057;-89
2021/10/04 05:03:30;;;;;;;1.70;0.80;;;13.50;99.90;;;;;;5011922;28;20025;-89
2021/10/04 05:05:56;;;;;;;2.42;1.00;;;13.60;99.90;;;;;;5011986;28;20022;-90
2021/10/04 05:08:21;;;;;;;1.05;0.80;;;13.70;99.90;;;;;;5011989;28;20080;-88
2021/10/04 05:10:47;;;;;;;1.08;0.90;;;13.70;99.90;;;;;;5013097;28;20537;-88
2021/10/04 05:13:13;;;;;;;3.47;1.10;;;13.60;99.90;;;;;;5013189;28;20398;-89
2021/10/04 05:15:38;;;;;;;1.35;0.90;;;13.50;99.90;;;;;;5011892;28;20030;-89
2021/10/04 05:18:04;;;;;;;1.50;0.85;;;13.40;99.90;;;;;;5011986;28;20026;-90
2021/10/04 05:20:30;;;;;;;4.43;0.82;;;13.50;99.90;;;;;;5011998;28;20112;-89
2021/10/04 05:22:56;;;;;;;1.02;0.70;;;13.70;99.90;;;;;;5011949;28;20022;-89
2021/10/04 05:25:21;;;;;;;1.58;0.68;;;13.80;99.90;;;;;;5013188;28;20397;-89
2021/10/04 05:27:47;;;;;;;0.98;0.73;;;13.80;99.90;;;;;;5011895;28;20097;-89
2021/10/04 05:30:13;;;;;;;2.35;0.93;;;13.80;99.90;;;;;;5012809;28;20461;-89
2021/10/04 05:32:39;;;;;;;3.28;0.77;;;13.90;99.90;;;;;;5013375;28;20374;-89
2021/10/04 05:35:06;;;;;;;4.68;0.95;;;13.80;99.90;;;;;;5015268;28;20033;-89
2021/10/04 05:37:32;;;;;;;0.88;0.63;;;13.70;99.90;;;;;;5015156;28;20053;-89
2021/10/04 05:39:57;;;;;;;2.85;0.90;;;13.60;99.90;;;;;;5016793;28;20061;-89
2021/10/04 05:42:24;;;;;;;1.35;0.57;;;13.90;99.90;;;;;;5015077;28;20026;-89
2021/10/04 05:44:50;;;;;;;1.92;0.80;;;13.90;99.90;;;;;;5015761;28;20509;-89
2021/10/04 05:47:16;;;;;;;2.03;0.70;;;13.80;99.90;;;;;;5015073;28;20489;-89
2021/10/04 05:49:43;;;;;;;1.80;0.80;;;13.80;99.90;;;;;;5014944;28;20036;-88
2021/10/04 05:52:09;;;;;;;2.85;0.60;;;13.70;99.90;;;;;;5014924;28;20120;-88
2021/10/04 05:54:34;;;;;;;0.95;0.68;;;13.70;99.90;;;;;;5014792;28;20504;-89
2021/10/04 05:57:00;;;;;;;1.40;0.60;;;13.50;99.90;;;;;;5014633;28;20034;-88
2021/10/04 05:59:26;;;;;;;1.10;0.60;;;13.60;99.90;;;;;;5015076;28;20057;-88
2021/10/04 06:01:51;;;;;;;3.03;0.75;;;13.60;99.90;;;;;;5015019;28;20106;-88
2021/10/04 06:04:17;;;;;;;1.40;0.60;;;13.50;99.90;;;;;;5014679;28;20025;-88
2021/10/04 06:06:43;;;;;;;1.88;0.70;;;13.50;99.90;;;;;;5014708;28;20478;-89
2021/10/04 06:09:08;;;;;;;1.83;0.88;;;13.50;99.90;;;;;;5014699;28;20375;-88
2021/10/04 06:11:34;;;;;;;3.08;0.80;;;13.40;99.90;;;;;;5014834;28;20018;-89
2021/10/04 06:14:00;;;;;;;1.42;0.90;;;13.40;99.90;;;;;;5014390;28;20030;-89
2021/10/04 06:16:26;;;;;;;2.13;0.90;;;13.40;99.90;;;;;;5014434;28;20057;-88
2021/10/04 06:18:52;;;;;;;1.77;1.00;;;13.40;99.90;;;;;;5014376;28;20054;-90
2021/10/04 06:21:18;;;;;;;1.65;0.75;;;13.40;99.90;;;;;;5014821;28;20076;-89
2021/10/04 06:23:43;;;;;;;1.58;0.82;;;13.60;99.90;;;;;;5014534;28;20539;-89
2021/10/04 06:26:10;;;;;;;2.08;0.98;;;13.80;99.90;;;;;;5021876;28;20492;-89
2021/10/04 06:28:36;;;;;;;1.77;0.77;;;13.90;99.90;;;;;;5027926;28;20041;-90
2021/10/04 06:31:02;;;;;;;1.23;0.68;;;14.00;99.90;;;;;;5018931;28;20489;-90
2021/10/04 06:33:28;;;;;;;2.40;0.80;;;13.80;99.90;;;;;;5016501;28;20030;-90
2021/10/04 06:35:54;;;;;;;1.08;0.80;;;13.80;99.90;;;;;;5015345;28;20117;-90
2021/10/04 06:38:20;;;;;;;2.03;0.80;;;13.90;99.90;;;;;;5014227;28;20485;-90
2021/10/04 06:40:45;;;;;;;2.13;0.50;;;13.90;99.90;;;;;;5014301;28;20036;-90
2021/10/04 06:43:11;;;;;;;0.85;0.60;;;14.10;99.90;;;;;;5019738;28;20538;-90
2021/10/04 06:45:37;;;;;;;1.00;0.60;;;14.30;99.90;;;;;;5037840;28;20032;-89
2021/10/04 06:48:03;;;;;;;1.42;0.70;;;14.30;99.90;;;;;;5037476;28;20032;-89
2021/10/04 06:50:29;;;;;;;0.80;0.70;;;14.30;99.90;;;;;;5038085;28;20029;-88
2021/10/04 06:52:55;;;;;;;1.20;0.50;;;14.20;99.90;;;;;;5054782;28;20025;-89
2021/10/04 06:55:20;;;;;;;2.60;1.00;;;14.30;99.90;;;;;;5054674;28;20036;-86
2021/10/04 06:57:46;;;;;;;0.93;0.70;;;14.30;99.90;;;;;;5036771;28;20392;-88
2021/10/04 07:00:20;;;;;;;1.48;0.93;;;14.30;99.90;;;;;;5036642;28;20021;-88
2021/10/04 07:02:47;;;;;;;;;;;14.20;99.90;;;;;;5037085;28;20017;-87
2021/10/04 07:05:13;;;;;;;4.78;1.00;;;14.20;99.90;;;;;;5036769;28;20003;-87
2021/10/04 07:07:39;;;;;;;3.35;1.00;;;14.20;99.90;;;;;;5036484;28;20476;-88
2021/10/04 07:10:05;;;;;;;2.10;1.05;;;14.10;99.90;;;;;;5036463;28;20032;-88
2021/10/04 07:12:31;;;;;;;1.90;0.80;;;14.10;99.90;;;;;;5036592;28;20033;-88
2021/10/04 07:14:56;;;;;;;1.13;0.75;;;14.20;99.90;;;;;;5036387;28;20047;-88
2021/10/04 07:17:23;;;;;;;1.25;0.75;;;14.20;99.90;;;;;;5036178;28;20510;-87
2021/10/04 07:19:48;;;;;;;2.70;0.90;;;14.20;99.90;;;;;;5036234;28;20021;-88
2021/10/04 07:22:15;;;;;;;4.57;1.08;;;14.10;99.90;;;;;;5036567;28;20044;-88
2021/10/04 07:24:41;;;;;;;1.58;0.93;;;14.10;99.90;;;;;;5036258;28;20033;-89
2021/10/04 07:27:07;;;;;;;2.28;0.90;;;14.10;99.90;;;;;;5036088;28;20033;-88
2021/10/04 07:29:33;;;;;;;2.33;0.90;;;14.10;99.90;;;;;;5036186;28;20025;-89
2021/10/04 07:32:01;;;;;;;1.30;0.80;;;14.20;99.90;;;;;;5036045;28;20029;-88
2021/10/04 07:34:28;;;;;;;3.45;0.68;;;14.20;99.90;;;;;;5036122;28;20021;-88
2021/10/04 07:36:54;;;;;;;1.85;0.77;;;14.40;99.90;;;;;;5035985;28;20454;-89
2021/10/04 07:39:20;;;;;;;1.95;0.70;;;14.40;99.90;;;;;;5035866;28;20025;-89
2021/10/04 07:41:46;;;;;;;2.83;1.00;;;14.40;99.90;;;;;;5036009;28;20021;-89
2021/10/04 07:44:13;;;;;;;2.35;0.80;;;14.30;99.90;;;;;;5035988;28;20121;-89
2021/10/04 07:46:39;;;;;;;1.85;0.80;;;14.30;99.90;;;;;;5035798;28;20135;-89
2021/10/04 07:49:05;;;;;;;1.88;0.73;;;14.30;99.90;;;;;;5053696;28;20052;-88
2021/10/04 07:51:31;;;;;;;5.15;0.65;;;14.50;99.90;;;;;;5035907;28;20110;-89
2021/10/04 07:53:57;;;;;;;1.08;0.60;;;14.50;99.90;;;;;;5053784;28;20028;-90
2021/10/04 07:56:24;;;;;;;2.22;0.77;;;14.40;99.90;;;;;;5035746;28;20027;-89
2021/10/04 07:58:50;;;;;;;4.22;1.10;;;14.30;99.90;;;;;;5053453;28;20496;-88
2021/10/04 08:01:16;;;;;;;5.38;2.80;;;14.30;99.90;;;;;;5036094;28;20044;-88
2021/10/04 08:03:42;;;;;;;4.18;0.80;;;14.30;99.90;;;;;;5053367;28;20480;-88
2021/10/04 08:06:08;;;;;;;4.03;0.88;;;14.10;99.90;;;;;;5035995;28;20024;-88
2021/10/04 08:08:37;;;;;;;2.53;0.70;;;14.00;99.90;;;;;;5036434;28;20029;-89
2021/10/04 08:11:03;;;;;;;3.58;0.82;;;14.10;99.90;;;;;;5037491;28;20064;-89
2021/10/04 08:13:29;;;;;;;5.63;0.68;;;14.30;99.90;;;;;;5036291;28;20029;-89
2021/10/04 08:15:55;;;;;;;1.13;0.50;;;14.40;99.90;;;;;;5035796;28;20031;-90
2021/10/04 08:18:21;;;;;;;1.63;0.80;;;14.50;99.90;;;;;;5036208;28;20029;-89
2021/10/04 08:20:46;;;;;;;4.45;0.73;;;14.60;99.90;;;;;;5036884;28;20400;-90
2021/10/04 08:23:13;;;;;;;1.92;0.60;;;14.40;99.90;;;;;;5036348;28;20024;-89
2021/10/04 08:25:40;;;;;;;1.60;0.90;;;14.40;99.90;;;;;;5036455;28;20475;-89
2021/10/04 08:28:06;;;;;;;2.08;0.70;;;14.40;99.90;;;;;;5035276;28;20025;-90
2021/10/04 08:30:33;;;;;;;1.13;0.70;;;14.40;99.90;;;;;;5035844;28;20032;-91
2021/10/04 08:32:59;;;;;;;4.63;0.90;;;14.40;99.90;;;;;;5036238;28;20560;-90
2021/10/04 08:35:25;;;;;;;2.83;0.90;;;14.50;99.90;;;;;;5037435;28;20373;-92
2021/10/04 08:37:51;;;;;;;3.42;0.73;;;14.60;99.90;;;;;;5038072;28;20029;-90
2021/10/04 08:40:17;;;;;;;2.47;0.85;;;14.50;99.90;;;;;;5056087;28;20029;-90
2021/10/04 08:42:44;;;;;;;3.53;0.80;;;14.50;99.90;;;;;;5055949;28;20081;-91
2021/10/04 08:45:11;;;;;;;2.67;1.48;;;14.40;99.90;;;;;;5038919;28;20527;-91
2021/10/04 08:47:38;;;;;;;3.33;1.50;;;14.40;99.90;;;;;;5038279;28;20023;-93
2021/10/04 08:50:23;;;;;;;2.33;1.27;;;14.40;99.90;;;;;;5036269;28;20075;-94
2021/10/04 08:52:48;;;;;;;1.38;1.17;;;14.30;99.90;;;;;;5036576;28;20380;-92
2021/10/04 08:55:14;;;;;;;3.40;1.27;;;14.30;99.90;;;;;;5036469;28;20025;-92
2021/10/04 08:57:44;;;;;;;2.08;0.90;;;14.30;99.90;;;;;;5036714;28;20033;-94
2021/10/04 09:00:11;;;;;;;3.30;1.25;;;14.30;99.90;;;;;;5036054;28;20029;-94
2021/10/04 09:02:48;;;;;;;2.22;1.00;;;14.30;99.90;;;;;;5019888;28;20025;-94
2021/10/04 09:05:25;;;;;;;3.33;1.67;;;14.30;99.90;;;;;;5036895;28;20107;-93
2021/10/04 09:08:07;;;;;;;1.70;1.05;;;14.20;99.90;;;;;;5055904;28;20035;-93
2021/10/04 09:10:38;;;;;;;1.10;0.70;;;14.20;99.90;;;;;;5040005;28;20025;-93
2021/10/04 09:13:14;;;;;;;1.70;0.77;;;14.00;99.90;;;;;;5040850;28;20033;-93
2021/10/04 09:15:44;;;;;;;2.17;1.30;;;14.10;99.90;;;;;;5040641;28;20029;-91
2021/10/04 09:18:20;;;;;;;2.70;0.80;;;14.10;99.90;;;;;;5039665;28;20388;-90
2021/10/04 09:21:05;;;;;;;1.75;0.80;;;14.30;99.90;;;;;;5039756;28;20022;-94
2021/10/04 09:23:35;;;;;;;1.90;0.60;;;14.40;99.90;;;;;;5041056;28;20054;-93
2021/10/04 09:26:04;;;;;;;1.73;0.57;;;14.40;99.90;;;;;;5040554;28;20029;-94
2021/10/04 09:28:44;;;;;;;0.80;0.60;;;14.40;99.90;;;;;;5040206;28;20472;-94
2021/10/04 09:31:55;;;;;;;6.55;0.70;;;14.40;99.90;;;;;;5039703;28;20490;-94
2021/10/04 09:34:27;;;;;;;1.80;0.68;;;14.30;99.90;;;;;;4942166;29;20035;-95
2021/10/04 09:36:59;;;;;;;0.40;0.30;;;14.30;99.90;;;;;;5030276;28;20029;-94
2021/10/04 09:39:31;;;;;;;0.95;0.47;;;14.30;99.90;;;;;;5039614;28;20039;-93
2021/10/04 09:42:18;;;;;;;1.50;0.70;;;14.30;99.90;;;;;;5039773;28;20017;-94
2021/10/04 09:44:48;;;;;;;1.77;0.68;;;14.30;99.90;;;;;;5021033;28;20042;-93
2021/10/04 09:47:23;;;;;;;3.40;0.60;;;14.40;99.90;;;;;;5016739;28;20634;-94
2021/10/04 09:49:57;;;;;;;2.65;0.30;;;14.40;99.90;;;;;;5016874;28;20433;-95
2021/10/04 09:52:44;;;;;;;2.15;0.60;;;14.20;99.90;;;;;;5017140;28;20053;-94
2021/10/04 09:55:32;;;;;;;1.30;0.40;;;14.30;99.90;;;;;;5017352;28;20045;-95
2021/10/04 09:58:25;;;;;;;1.13;0.57;;;14.30;99.90;;;;;;5017583;28;20030;-95
2021/10/04 10:00:59;;;;;;;0.70;0.50;;;14.20;99.90;;;;;;5016569;28;20396;-95
2021/10/04 10:03:49;;;;;;;3.17;0.83;;;14.30;99.90;;;;;;5017072;28;20022;-95
2021/10/04 10:13:17;;;;;;;1.23;0.40;;;14.40;99.90;;;;;;4982543;28;20056;-94
2021/10/04 10:16:03;;;;;;;1.35;0.40;;;14.20;99.90;;;;;;5016363;28;20036;-94
2021/10/04 10:18:55;;;;;;;0.77;0.40;;;14.10;99.90;;;;;;4997034;28;20046;-94
2021/10/04 10:21:36;;;;;;;1.13;0.30;;;14.30;99.90;;;;;;5017600;28;20061;-94
2021/10/04 10:24:38;;;;;;;;;;;;;;;;;;;;;
2021/10/04 10:27:46;;;;;;;1.40;0.35;;;14.20;99.90;;;;;;5018229;28;20036;-94
2021/10/04 10:30:28;;;;;;;0.10;0.10;;;14.20;99.90;;;;;;5015238;28;20109;-95
2021/10/04 10:32:57;;;;;;;0.55;0.30;;;14.10;99.90;;;;;;5015644;28;20026;-95
2021/10/04 10:35:48;;;;;;;0.30;0.20;;;14.20;99.90;;;;;;5016187;28;20033;-95
2021/10/04 10:38:17;;;;;;;0.73;0.40;;;14.30;99.90;;;;;;5015014;28;20030;-94
2021/10/04 10:41:16;;;;;;;2.13;0.30;;;14.20;99.90;;;;;;5015431;28;20462;-94
2021/10/04 10:44:04;;;;;;;0.40;0.20;;;14.10;99.90;;;;;;5015626;28;20042;-94
2021/10/04 10:46:45;;;;;;;0.95;0.40;;;14.20;99.90;;;;;;5018211;28;20026;-94
2021/10/04 10:49:10;;;;;;;0.57;0.20;;;14.20;99.90;;;;;;5021788;28;20026;-95
2021/10/04 10:51:56;;;;;;;0.57;0.30;;;14.10;99.90;;;;;;5025779;28;20063;-95
2021/10/04 10:54:39;;;;;;;0.82;0.30;;;14.00;99.90;;;;;;5038063;28;20045;-95
2021/10/04 10:57:07;;;;;;;0.10;0.10;;;14.20;99.90;;;;;;5032194;28;20025;-94
2021/10/04 10:59:33;;;;;;;2.08;0.40;;;14.40;99.90;;;;;;5019321;28;20045;-94
2021/10/04 11:01:59;;;;;;;1.60;0.30;;;14.30;99.90;;;;;;5017790;28;20033;-94
2021/10/04 11:04:45;;;;;;;2.25;0.40;;;14.30;99.90;;;;;;5015552;28;20021;-94
2021/10/04 11:10:56;;;;;;;2.55;0.47;;;14.40;99.90;;;;;;5015535;28;20026;-93
2021/10/04 11:14:07;;;;;;;;;;;;;;;;;;;;;
2021/10/04 11:20:16;;;;;;;0.60;0.30;;;14.70;99.90;;;;;;5001611;28;20064;-95
2021/10/04 11:35:38;;;;;;;0.77;0.40;;;14.20;99.90;;;;;;5014889;28;20028;-94
2021/10/04 11:38:52;;;;;;;0.90;0.40;;;14.10;99.90;;;;;;5014846;28;20036;-95
2021/10/04 11:42:05;;;;;;;1.48;0.50;;;14.00;99.90;;;;;;5014364;28;20026;-95
2021/10/04 11:44:48;;;;;;;2.40;1.00;;;14.20;99.90;;;;;;5006363;28;20103;-92
2021/10/04 11:51:09;;;;;;;2.60;1.23;;;14.30;99.90;;;;;;5034991;28;20025;-94
2021/10/04 11:53:41;;;;;;;4.25;1.38;;;14.60;99.90;;;;;;5034459;28;20056;-94
2021/10/04 12:10:12;;;;;;;3.90;1.00;;;14.70;99.90;;;;;;4936447;29;20051;-94
2021/10/04 12:12:38;;;;;;;2.33;0.65;;;14.90;99.90;;;;;;4935875;29;20178;-94
2021/10/04 12:15:06;;;;;;;2.28;1.00;;;14.90;99.90;;;;;;4992852;28;20494;-95
2021/10/04 12:17:38;;;;;;;1.30;0.80;;;14.80;99.90;;;;;;5033592;28;20033;-94
2021/10/04 12:20:23;;;;;;;1.05;0.70;;;14.80;99.90;;;;;;5033528;28;20017;-94
2021/10/04 12:22:49;;;;;;;1.83;0.80;;;14.80;99.90;;;;;;5034090;28;20550;-92
2021/10/04 12:25:31;;;;;;;1.48;0.70;;;14.80;99.90;;;;;;5034917;28;20021;-94
2021/10/04 12:28:06;;;;;;;2.25;0.70;;;15.00;99.90;;;;;;5034356;28;20084;-91
2021/10/04 12:30:54;;;;;;;2.15;0.60;;;15.00;99.90;;;;;;5034372;28;20037;-93
2021/10/04 12:33:44;;;;;;;1.25;0.40;;;15.00;99.90;;;;;;5033547;28;20022;-92
2021/10/04 12:36:12;;;;;;;0.45;0.43;;;14.90;99.90;;;;;;5033775;28;20029;-93
2021/10/04 12:38:49;;;;;;;0.73;0.50;;;15.00;99.90;;;;;;5034326;28;20033;-95
2021/10/04 12:41:15;;;;;;;4.80;0.82;;;14.80;99.90;;;;;;5033831;28;20026;-92
2021/10/04 12:43:41;;;;;;;0.90;0.50;;;14.80;99.90;;;;;;5030804;28;20168;-89
2021/10/04 12:46:11;;;;;;;0.65;0.38;;;14.80;99.90;;;;;;5017889;28;20025;-90
2021/10/04 12:48:42;;;;;;;1.42;0.65;;;14.70;99.90;;;;;;5017006;28;20120;-90
2021/10/04 12:51:13;;;;;;;1.42;0.50;;;14.80;99.90;;;;;;5017177;28;20026;-92
2021/10/04 12:53:51;;;;;;;1.00;0.50;;;14.80;99.90;;;;;;5018018;28;20026;-93
2021/10/04 12:56:32;;;;;;;1.42;0.40;;;15.00;99.90;;;;;;5018365;28;20029;-92
2021/10/04 12:59:09;;;;;;;1.48;0.82;;;14.90;99.90;;;;;;5019708;28;20480;-92
2021/10/04 13:01:36;;;;;;;0.73;0.30;;;15.10;99.90;;;;;;5023125;28;20026;-91
2021/10/04 13:04:07;;;;;;;2.17;0.40;;;15.10;99.90;;;;;;5025821;28;20022;-93
2021/10/04 13:06:41;;;;;;;0.98;0.43;;;15.20;99.90;;;;;;5039883;28;20018;-91
2021/10/04 13:09:09;;;;;;;5.30;0.50;;;15.10;99.90;;;;;;5037007;28;20018;-93
2021/10/04 13:11:42;;;;;;;2.28;0.40;;;14.90;99.90;;;;;;5019959;28;20064;-91
2021/10/04 13:14:08;;;;;;;0.90;0.40;;;14.80;99.90;;;;;;5018939;28;20060;-91
2021/10/04 13:16:34;;;;;;;1.65;0.50;;;14.70;99.90;;;;;;5017158;28;20053;-91
2021/10/04 13:19:03;;;;;;;1.10;0.60;;;14.80;99.90;;;;;;5016764;28;20034;-91
2021/10/04 13:21:32;;;;;;;0.93;0.38;;;14.80;99.90;;;;;;5017720;28;20065;-91
2021/10/04 13:23:57;;;;;;;2.65;0.52;;;14.70;99.90;;;;;;5016596;28;20022;-90
2021/10/04 13:26:24;;;;;;;0.35;0.25;;;14.60;99.90;;;;;;5016421;28;20072;-90
2021/10/04 13:28:51;;;;;;;2.35;0.40;;;14.50;99.90;;;;;;5016345;28;20073;-91
2021/10/04 13:31:17;;;;;;;1.48;0.73;;;14.50;99.90;;;;;;5016509;28;20116;-91
2021/10/04 13:33:45;;;;;;;2.78;0.70;;;14.40;99.90;;;;;;5016352;28;20026;-90
2021/10/04 13:36:12;;;;;;;1.90;0.80;;;14.50;99.90;;;;;;5015961;28;20029;-91
2021/10/04 13:38:39;;;;;;;1.95;0.75;;;14.60;99.90;;;;;;5015852;28;20029;-91
2021/10/04 13:41:07;;;;;;;2.28;1.38;;;14.70;99.90;;;;;;5016084;28;20390;-90
2021/10/04 13:43:34;;;;;;;1.33;0.70;;;14.80;99.90;;;;;;5015583;28;20042;-90
2021/10/04 13:46:00;;;;;;;0.50;0.40;;;14.80;99.90;;;;;;5015717;28;20026;-91